Time,TemperatureF,DewpointF,PressureIn,WindDirection,WindDirectionDegrees,WindSpeedMPH,WindSpeedGustMPH,Humidity,HourlyPrecipIn,Conditions,Clouds,dailyrainin,SoftwareType,DateUTC
2013-04-05 00:00:00,36.1,35.0,30.05,SE,131,0.0,3.0,94,0.04,,,0.14,weatherlink.com 1.10,2013-04-05 04:00:00,
2013-04-05 00:15:00,36.6,35.0,30.03,ESE,122,1.0,1.0,94,0.05,,,0.02,weatherlink.com 1.10,2013-04-05 04:15:00,
2013-04-05 00:30:00,37.1,36.0,30.02,SSW,208,0.0,1.0,94,0.04,,,0.02,weatherlink.com 1.10,2013-04-05 04:30:00,
2013-04-05 00:45:00,37.5,36.0,30.01,ESE,122,1.0,1.0,94,0.04,,,0.03,weatherlink.com 1.10,2013-04-05 04:45:00,
2013-04-05 01:00:00,37.9,36.0,30.00,SE,125,0.0,1.0,94,0.04,,,0.04,weatherlink.com 1.10,2013-04-05 05:00:00,
2013-04-05 01:15:00,38.5,37.0,30.00,ESE,118,0.0,1.0,94,0.02,,,0.04,weatherlink.com 1.10,2013-04-05 05:15:00,
2013-04-05 01:30:00,38.7,37.0,29.99,SE,124,0.0,1.0,94,0.03,,,0.05,weatherlink.com 1.10,2013-04-05 05:30:00,
2013-04-05 01:46:00,38.8,37.0,29.98,ESE,122,0.0,1.0,93,0.03,,,0.06,weatherlink.com 1.10,2013-04-05 05:46:00,
2013-04-05 02:00:00,38.8,37.0,29.97,SE,126,0.0,1.0,93,0.03,,,0.07,weatherlink.com 1.10,2013-04-05 06:00:00,
2013-04-05 02:15:00,38.7,37.0,29.96,SE,126,0.0,1.0,93,0.03,,,0.07,weatherlink.com 1.10,2013-04-05 06:15:00,
2013-04-05 02:30:00,38.8,37.0,29.95,SE,125,0.0,1.0,94,0.03,,,0.08,weatherlink.com 1.10,2013-04-05 06:30:00,
2013-04-05 02:46:00,38.9,37.0,29.94,SE,126,0.0,1.0,94,0.03,,,0.09,weatherlink.com 1.10,2013-04-05 06:46:00,
2013-04-05 03:01:00,38.9,37.0,29.94,SE,126,0.0,0.0,94,0.02,,,0.09,weatherlink.com 1.10,2013-04-05 07:01:00,
2013-04-05 03:16:00,38.8,37.0,29.93,SE,126,0.0,0.0,94,0.04,,,0.11,weatherlink.com 1.10,2013-04-05 07:16:00,
2013-04-05 03:31:00,38.7,37.0,29.93,SE,124,0.0,0.0,94,0.04,,,0.12,weatherlink.com 1.10,2013-04-05 07:31:00,
2013-04-05 03:46:00,38.8,37.0,29.93,SE,124,0.0,0.0,94,0.04,,,0.13,weatherlink.com 1.10,2013-04-05 07:46:00,
2013-04-05 04:01:00,38.7,37.0,29.93,SE,124,0.0,0.0,94,0.04,,,0.13,weatherlink.com 1.10,2013-04-05 08:01:00,
2013-04-05 04:16:00,38.5,37.0,29.93,SE,124,0.0,0.0,94,0.02,,,0.13,weatherlink.com 1.10,2013-04-05 08:16:00,
2013-04-05 04:31:00,38.3,37.0,29.93,SE,125,0.0,0.0,94,0.02,,,0.14,weatherlink.com 1.10,2013-04-05 08:31:00,
2013-04-05 04:46:00,37.9,36.0,29.93,SE,126,0.0,0.0,94,0.01,,,0.14,weatherlink.com 1.10,2013-04-05 08:46:00,
2013-04-05 05:01:00,37.8,36.0,29.94,SE,125,0.0,0.0,94,0.02,,,0.15,weatherlink.com 1.10,2013-04-05 09:01:00,
2013-04-05 05:16:00,37.9,36.0,29.94,SE,126,0.0,0.0,94,0.02,,,0.15,weatherlink.com 1.10,2013-04-05 09:16:00,
2013-04-05 05:31:00,38.1,37.0,29.93,SE,124,0.0,1.0,94,0.02,,,0.16,weatherlink.com 1.10,2013-04-05 09:31:00,
2013-04-05 05:46:00,38.3,37.0,29.93,SE,124,0.0,0.0,94,0.02,,,0.16,weatherlink.com 1.10,2013-04-05 09:46:00,
2013-04-05 06:01:00,37.3,36.0,29.94,ENE,77,0.0,3.0,94,0.01,,,0.16,weatherlink.com 1.10,2013-04-05 10:01:00,
2013-04-05 06:16:00,37.5,36.0,29.94,ENE,77,0.0,0.0,94,0.01,,,0.16,weatherlink.com 1.10,2013-04-05 10:16:00,
2013-04-05 06:46:00,37.5,36.0,29.94,SSW,199,0.0,0.0,94,0.00,,,0.16,weatherlink.com 1.10,2013-04-05 10:46:00,
2013-04-05 07:16:00,37.1,36.0,29.93,ESE,115,2.0,4.0,94,0.00,,,0.16,weatherlink.com 1.10,2013-04-05 11:16:00,
2013-04-05 07:46:00,37.1,35.0,29.94,SSW,199,0.0,4.0,93,0.00,,,0.16,weatherlink.com 1.10,2013-04-05 11:46:00,
2013-04-05 08:16:00,37.1,33.0,29.94,WSW,246,4.0,7.0,86,0.00,,,0.16,weatherlink.com 1.10,2013-04-05 12:16:00,
2013-04-05 08:31:00,37.5,33.0,29.94,WSW,253,2.0,7.0,83,0.00,,,0.16,weatherlink.com 1.10,2013-04-05 12:31:00,
2013-04-05 08:46:00,37.3,33.0,29.93,NE,53,1.0,4.0,84,0.00,,,0.16,weatherlink.com 1.10,2013-04-05 12:46:00,
2013-04-05 09:01:00,37.7,33.0,29.94,SW,224,1.0,5.0,82,0.00,,,0.16,weatherlink.com 1.10,2013-04-05 13:01:00,
2013-04-05 09:31:00,37.8,32.0,29.94,NNW,341,0.0,3.0,78,0.00,,,0.16,weatherlink.com 1.10,2013-04-05 13:31:00,
2013-04-05 10:01:00,39.2,31.0,29.94,NNW,330,3.0,5.0,71,0.00,,,0.16,weatherlink.com 1.10,2013-04-05 14:01:00,
2013-04-05 10:20:00,39.4,31.0,29.94,East,94,0.0,3.0,73,0.00,,,0.16,weatherlink.com 1.10,2013-04-05 14:20:00,
2013-04-05 11:01:00,42.3,30.0,29.95,NW,323,1.0,5.0,63,0.00,,,0.16,weatherlink.com 1.10,2013-04-05 15:01:00,
2013-04-05 11:31:00,44.6,30.0,29.95,WSW,242,5.0,10.0,58,0.00,,,0.16,weatherlink.com 1.10,2013-04-05 15:31:00,
2013-04-05 11:46:00,45.5,30.0,29.95,North,1,1.0,8.0,56,0.00,,,0.16,weatherlink.com 1.10,2013-04-05 15:46:00,
2013-04-05 12:01:00,46.0,30.0,29.95,North,350,1.0,6.0,54,0.00,,,0.16,weatherlink.com 1.10,2013-04-05 16:01:00,
2013-04-05 12:16:00,46.8,32.0,29.93,West,276,1.0,5.0,57,0.00,,,0.16,weatherlink.com 1.10,2013-04-05 16:16:00,
2013-04-05 12:32:00,47.4,31.0,29.93,WSW,252,2.0,-999.0,54,-99.99,,,0.16,weatherlink.com 1.10,2013-04-05 16:32:00,
2013-04-05 12:47:00,48.7,33.0,29.92,East,91,3.0,6.0,54,0.00,,,0.16,weatherlink.com 1.10,2013-04-05 16:47:00,
2013-04-05 13:02:00,49.5,31.0,29.92,NW,318,7.0,7.0,49,0.00,,,0.16,weatherlink.com 1.10,2013-04-05 17:02:00,
2013-04-05 13:17:00,51.0,28.0,29.91,West,281,3.0,11.0,42,0.00,,,0.16,weatherlink.com 1.10,2013-04-05 17:17:00,
2013-04-05 13:32:00,51.5,28.0,29.90,WNW,287,1.0,10.0,41,0.00,,,0.16,weatherlink.com 1.10,2013-04-05 17:32:00,
2013-04-05 13:47:00,51.8,27.0,29.89,SW,236,6.0,10.0,38,0.00,,,0.16,weatherlink.com 1.10,2013-04-05 17:47:00,
2013-04-05 14:02:00,52.6,26.0,29.90,NW,326,3.0,9.0,36,0.00,,,0.16,weatherlink.com 1.10,2013-04-05 18:02:00,
2013-04-05 14:17:00,53.2,26.0,29.89,WSW,243,2.0,11.0,35,0.00,,,0.16,weatherlink.com 1.10,2013-04-05 18:17:00,
2013-04-05 14:47:00,54.3,28.0,29.88,SW,231,7.0,11.0,36,0.00,,,0.16,weatherlink.com 1.10,2013-04-05 18:47:00,
2013-04-05 15:02:00,54.6,28.0,29.88,WNW,283,1.0,13.0,36,0.00,,,0.16,weatherlink.com 1.10,2013-04-05 19:02:00,
2013-04-05 15:17:00,55.5,28.0,29.87,WSW,254,2.0,9.0,35,0.00,,,0.16,weatherlink.com 1.10,2013-04-05 19:17:00,
2013-04-05 15:32:00,56.6,29.0,29.87,SSE,148,1.0,10.0,35,0.00,,,0.16,weatherlink.com 1.10,2013-04-05 19:32:00,
2013-04-05 15:47:00,55.6,27.0,29.87,SW,214,4.0,11.0,33,0.00,,,0.16,weatherlink.com 1.10,2013-04-05 19:47:00,
2013-04-05 16:02:00,55.8,28.0,29.86,SW,226,4.0,9.0,35,0.00,,,0.16,weatherlink.com 1.10,2013-04-05 20:02:00,
2013-04-05 16:17:00,56.1,28.0,29.86,West,259,5.0,7.0,34,0.00,,,0.16,weatherlink.com 1.10,2013-04-05 20:17:00,
2013-04-05 16:32:00,56.5,29.0,29.86,WSW,246,1.0,10.0,35,0.00,,,0.16,weatherlink.com 1.10,2013-04-05 20:32:00,
2013-04-05 16:47:00,57.0,29.0,29.86,NW,312,2.0,7.0,35,0.00,,,0.16,weatherlink.com 1.10,2013-04-05 20:47:00,
2013-04-05 17:03:00,56.3,28.0,29.87,West,278,5.0,9.0,34,0.00,,,0.16,weatherlink.com 1.10,2013-04-05 21:03:00,
2013-04-05 17:18:00,55.9,27.0,29.88,WSW,246,4.0,9.0,33,0.00,,,0.16,weatherlink.com 1.10,2013-04-05 21:18:00,
2013-04-05 17:35:00,55.5,27.0,29.88,NW,319,3.0,9.0,34,0.00,,,0.16,weatherlink.com 1.10,2013-04-05 21:35:00,
2013-04-05 17:48:00,56.6,27.0,29.88,WSW,257,6.0,8.0,32,0.00,,,0.16,weatherlink.com 1.10,2013-04-05 21:48:00,
2013-04-05 18:18:00,55.0,27.0,29.89,SSE,167,3.0,10.0,34,0.00,,,0.16,weatherlink.com 1.10,2013-04-05 22:18:00,
2013-04-05 18:33:00,54.6,27.0,29.89,SSW,205,2.0,7.0,34,0.00,,,0.16,weatherlink.com 1.10,2013-04-05 22:33:00,
2013-04-05 18:48:00,53.6,26.0,29.90,South,172,3.0,8.0,34,0.00,,,0.16,weatherlink.com 1.10,2013-04-05 22:48:00,
2013-04-05 19:03:00,52.7,26.0,29.91,SW,224,2.0,6.0,35,0.00,,,0.16,weatherlink.com 1.10,2013-04-05 23:03:00,
2013-04-05 19:18:00,51.2,26.0,29.91,NW,321,0.0,4.0,37,0.00,,,0.16,weatherlink.com 1.10,2013-04-05 23:18:00,
2013-04-05 19:33:00,49.7,25.0,29.92,SW,232,1.0,3.0,39,0.00,,,0.16,weatherlink.com 1.10,2013-04-05 23:33:00,
2013-04-05 19:48:00,48.5,26.0,29.93,South,181,2.0,4.0,41,0.00,,,0.16,weatherlink.com 1.10,2013-04-05 23:48:00,
2013-04-05 20:03:00,47.5,26.0,29.93,SSE,150,1.0,2.0,43,0.00,,,0.16,weatherlink.com 1.10,2013-04-06 00:03:00,
2013-04-05 20:18:00,46.8,26.0,29.94,SE,134,0.0,2.0,44,0.00,,,0.16,weatherlink.com 1.10,2013-04-06 00:18:00,
2013-04-05 20:33:00,46.3,26.0,29.95,SW,222,3.0,3.0,45,0.00,,,0.16,weatherlink.com 1.10,2013-04-06 00:33:00,
2013-04-05 20:48:00,45.9,26.0,29.96,SSW,208,0.0,5.0,46,0.00,,,0.16,weatherlink.com 1.10,2013-04-06 00:48:00,
2013-04-05 21:03:00,45.0,26.0,29.98,SSE,148,0.0,3.0,48,0.00,,,0.16,weatherlink.com 1.10,2013-04-06 01:03:00,
2013-04-05 21:18:00,44.9,27.0,29.98,SW,224,1.0,4.0,49,0.00,,,0.16,weatherlink.com 1.10,2013-04-06 01:18:00,
2013-04-05 21:33:00,44.8,27.0,29.99,SSW,205,2.0,4.0,49,0.00,,,0.16,weatherlink.com 1.10,2013-04-06 01:33:00,
2013-04-05 21:48:00,44.0,26.0,29.99,South,179,0.0,3.0,50,0.00,,,0.16,weatherlink.com 1.10,2013-04-06 01:48:00,
2013-04-05 22:03:00,43.6,26.0,30.00,SE,145,0.0,3.0,51,0.00,,,0.16,weatherlink.com 1.10,2013-04-06 02:03:00,
2013-04-05 22:18:00,42.9,27.0,30.00,South,190,0.0,3.0,53,0.00,,,0.16,weatherlink.com 1.10,2013-04-06 02:18:00,
2013-04-05 22:33:00,42.4,27.0,30.01,ESE,122,0.0,2.0,54,0.00,,,0.16,weatherlink.com 1.10,2013-04-06 02:33:00,
2013-04-05 22:48:00,41.8,27.0,30.01,SE,131,0.0,2.0,55,0.00,,,0.16,weatherlink.com 1.10,2013-04-06 02:48:00,
2013-04-05 23:03:00,41.2,27.0,30.02,ESE,108,0.0,1.0,57,0.00,,,0.16,weatherlink.com 1.10,2013-04-06 03:03:00,
2013-04-05 23:18:00,40.8,26.0,30.01,SW,220,0.0,2.0,57,0.00,,,0.16,weatherlink.com 1.10,2013-04-06 03:18:00,
2013-04-05 23:34:00,40.5,26.0,30.01,South,173,1.0,4.0,57,0.00,,,0.16,weatherlink.com 1.10,2013-04-06 03:34:00,
2013-04-05 23:48:00,40.4,26.0,30.01,SE,138,1.0,3.0,56,0.00,,,0.16,weatherlink.com 1.10,2013-04-06 03:48:00,